createdAt,value
2022-12-31T00:01:10.524Z,7.01
2022-12-31T00:03:39.450Z,7.06
2022-12-31T00:06:37.373Z,7.15
2022-12-31T00:09:07.607Z,7.25
2022-12-31T00:11:36.905Z,7.27
2022-12-31T00:14:05.977Z,7.33
2022-12-31T00:16:38.195Z,7.23
2022-12-31T00:19:09.579Z,7.15
2022-12-31T00:21:38.562Z,7.00
2022-12-31T00:24:07.405Z,6.85
2022-12-31T00:26:36.114Z,6.83
2022-12-31T00:29:05.602Z,6.84
2022-12-31T00:31:35.073Z,6.75
2022-12-31T00:34:04.522Z,6.71
2022-12-31T00:36:38.174Z,6.89
2022-12-31T00:39:08.471Z,6.94
2022-12-31T00:41:37.308Z,7.18
2022-12-31T00:44:05.915Z,7.31
2022-12-31T00:49:01.921Z,7.52
2022-12-31T00:51:30.103Z,7.41
2022-12-31T00:53:59.281Z,7.40
2022-12-31T00:56:30.329Z,7.17
2022-12-31T00:59:00.187Z,7.03
2022-12-31T01:01:31.652Z,7.24
2022-12-31T01:04:06.216Z,7.05
2022-12-31T01:06:34.814Z,6.88
2022-12-31T01:09:03.963Z,6.92
2022-12-31T01:11:32.793Z,6.69
2022-12-31T01:14:16.112Z,6.85
2022-12-31T01:16:52.670Z,7.17
2022-12-31T01:19:24.028Z,7.57
2022-12-31T01:21:53.019Z,7.61
2022-12-31T01:24:21.706Z,7.52
2022-12-31T01:26:51.445Z,7.40
2022-12-31T01:29:19.786Z,7.45
2022-12-31T01:31:48.167Z,7.39
2022-12-31T01:34:16.447Z,7.41
2022-12-31T01:36:45.647Z,7.54
2022-12-31T01:39:13.918Z,7.59
2022-12-31T01:41:45.212Z,7.71
2022-12-31T01:44:13.238Z,7.88
2022-12-31T01:46:52.058Z,7.88
2022-12-31T01:49:36.920Z,7.98
2022-12-31T01:52:21.387Z,7.80
2022-12-31T01:55:16.310Z,7.38
2022-12-31T01:57:50.212Z,6.99
2022-12-31T02:00:19.279Z,6.76
2022-12-31T02:02:47.441Z,6.71
2022-12-31T02:05:18.485Z,6.83
2022-12-31T02:07:48.743Z,6.83
2022-12-31T02:10:16.993Z,6.75
2022-12-31T02:12:46.405Z,6.61
2022-12-31T02:15:14.557Z,6.67
2022-12-31T02:18:04.225Z,6.62
2022-12-31T02:20:48.598Z,6.73
2022-12-31T02:23:35.246Z,6.95
2022-12-31T02:26:25.738Z,7.14
2022-12-31T02:29:21.815Z,7.04
2022-12-31T02:32:00.475Z,6.91
2022-12-31T02:34:35.588Z,6.70
2022-12-31T02:37:08.183Z,6.63
2022-12-31T02:39:36.693Z,6.73
2022-12-31T02:42:04.817Z,6.64
2022-12-31T02:44:35.668Z,6.65
2022-12-31T02:47:09.967Z,6.44
2022-12-31T02:49:43.746Z,6.15
2022-12-31T02:52:49.234Z,5.87
2022-12-31T02:55:35.791Z,6.19
2022-12-31T02:58:21.617Z,6.11
2022-12-31T03:01:12.649Z,6.17
2022-12-31T03:03:41.722Z,6.59
2022-12-31T03:06:11.732Z,6.89
2022-12-31T03:09:02.923Z,6.75
2022-12-31T03:11:49.617Z,6.78
2022-12-31T03:14:17.636Z,7.07
2022-12-31T03:16:45.749Z,7.09
2022-12-31T03:19:32.120Z,7.17
2022-12-31T03:22:19.648Z,7.32
2022-12-31T03:25:06.706Z,7.10
2022-12-31T03:27:34.884Z,6.93
2022-12-31T03:30:04.407Z,7.21
2022-12-31T03:32:32.757Z,7.26
2022-12-31T03:35:00.927Z,7.27
2022-12-31T03:37:28.996Z,7.42
2022-12-31T03:39:57.295Z,7.20
2022-12-31T03:42:25.317Z,6.86
2022-12-31T03:44:53.410Z,7.06
2022-12-31T03:47:22.094Z,7.18
2022-12-31T03:49:50.574Z,7.19
2022-12-31T03:52:18.635Z,7.13
2022-12-31T03:54:46.820Z,7.06
2022-12-31T03:57:14.814Z,6.95
2022-12-31T03:59:42.805Z,6.83
2022-12-31T04:02:11.474Z,6.84
2022-12-31T04:04:39.560Z,6.91
2022-12-31T04:07:07.930Z,7.09
2022-12-31T04:09:36.058Z,7.37
2022-12-31T04:12:05.051Z,7.51
2022-12-31T04:14:33.427Z,7.58
2022-12-31T04:17:01.666Z,7.61
2022-12-31T04:19:29.776Z,7.47
2022-12-31T04:21:59.080Z,7.61
2022-12-31T04:24:27.407Z,7.52
2022-12-31T04:26:55.598Z,7.03
2022-12-31T04:29:23.913Z,7.01
2022-12-31T04:31:52.170Z,7.24
2022-12-31T04:34:20.509Z,7.36
2022-12-31T04:36:48.728Z,7.37
2022-12-31T04:39:17.926Z,7.51
2022-12-31T04:41:46.085Z,7.50
2022-12-31T04:44:14.470Z,7.32
2022-12-31T04:46:42.779Z,7.44
2022-12-31T04:49:10.881Z,7.41
2022-12-31T04:51:39.637Z,7.38
2022-12-31T04:54:08.417Z,7.34
2022-12-31T04:56:36.897Z,7.25
2022-12-31T04:59:05.758Z,7.19
2022-12-31T05:01:34.050Z,7.21
2022-12-31T05:04:02.232Z,7.17
2022-12-31T05:06:30.469Z,7.16
2022-12-31T05:08:59.180Z,6.97
2022-12-31T05:11:27.267Z,6.44
2022-12-31T05:13:55.619Z,6.41
2022-12-31T05:16:24.247Z,6.66
2022-12-31T05:18:52.520Z,6.74
2022-12-31T05:21:21.662Z,6.86
2022-12-31T05:23:50.076Z,6.88
2022-12-31T05:26:18.320Z,6.54
2022-12-31T05:28:46.288Z,6.52
2022-12-31T05:31:14.607Z,6.61
2022-12-31T05:33:42.840Z,6.61
2022-12-31T05:36:10.999Z,6.71
2022-12-31T05:38:39.030Z,6.85
2022-12-31T05:41:08.117Z,6.91
2022-12-31T05:43:36.457Z,6.88
2022-12-31T05:46:04.963Z,6.89
2022-12-31T05:48:33.104Z,6.20
2022-12-31T05:51:01.174Z,5.84
2022-12-31T05:53:29.361Z,6.09
2022-12-31T05:55:57.422Z,6.42
2022-12-31T05:58:25.479Z,6.73
2022-12-31T06:00:53.568Z,6.91
2022-12-31T06:03:21.788Z,7.06
2022-12-31T06:05:50.034Z,7.22
2022-12-31T06:08:18.165Z,7.31
2022-12-31T06:10:46.255Z,7.28
2022-12-31T06:13:14.540Z,7.12
2022-12-31T06:15:42.756Z,7.25
2022-12-31T06:18:11.303Z,7.17
2022-12-31T06:20:39.460Z,6.87
2022-12-31T06:23:07.833Z,6.75
2022-12-31T06:25:40.303Z,6.59
2022-12-31T06:28:13.222Z,6.42
2022-12-31T06:30:46.066Z,6.35
2022-12-31T06:33:14.203Z,6.48
2022-12-31T06:35:42.258Z,6.42
2022-12-31T06:38:10.588Z,6.59
2022-12-31T06:40:38.759Z,6.75
2022-12-31T06:43:07.240Z,6.75
2022-12-31T06:45:35.313Z,6.51
2022-12-31T06:48:03.515Z,6.57
2022-12-31T06:50:31.561Z,6.80
2022-12-31T06:52:59.663Z,6.78
2022-12-31T06:55:28.413Z,6.96
2022-12-31T06:57:56.651Z,6.93
2022-12-31T07:00:25.013Z,6.88
2022-12-31T07:03:14.473Z,7.02
2022-12-31T07:05:51.132Z,7.13
2022-12-31T07:08:27.469Z,7.25
2022-12-31T07:11:16.539Z,7.61
2022-12-31T07:14:00.176Z,7.35
2022-12-31T07:16:54.347Z,7.09
2022-12-31T07:20:00.708Z,7.46
2022-12-31T07:22:29.508Z,7.71
2022-12-31T07:24:58.094Z,7.40
2022-12-31T07:27:40.189Z,6.96
2022-12-31T07:30:13.616Z,6.55
2022-12-31T07:33:00.286Z,6.41
2022-12-31T07:35:35.613Z,6.71
2022-12-31T07:38:40.564Z,6.94
2022-12-31T07:41:36.079Z,7.28
2022-12-31T07:44:15.611Z,7.41
2022-12-31T07:46:49.183Z,7.62
2022-12-31T07:49:17.949Z,7.55
2022-12-31T07:51:46.616Z,7.77
2022-12-31T07:54:15.162Z,7.99
2022-12-31T07:56:44.223Z,8.25
2022-12-31T07:59:31.406Z,8.43
2022-12-31T08:02:25.852Z,8.30
2022-12-31T08:05:08.488Z,8.39
2022-12-31T08:07:46.177Z,8.50
2022-12-31T08:10:37.554Z,8.62
2022-12-31T08:13:11.484Z,8.66
2022-12-31T08:15:41.289Z,8.70
2022-12-31T08:18:09.892Z,8.76
2022-12-31T08:21:03.077Z,8.69
2022-12-31T08:23:54.368Z,8.75
2022-12-31T08:26:40.153Z,8.94
2022-12-31T08:29:35.875Z,9.10
2022-12-31T08:32:26.056Z,8.75
2022-12-31T08:35:23.521Z,8.40
2022-12-31T08:38:01.527Z,8.47
2022-12-31T08:41:05.467Z,8.67
2022-12-31T08:43:51.834Z,8.92
2022-12-31T08:46:31.514Z,9.18
2022-12-31T08:49:00.278Z,9.51
2022-12-31T08:51:28.768Z,9.83
2022-12-31T08:53:57.484Z,10.25
2022-12-31T08:56:52.224Z,10.41
2022-12-31T08:59:53.781Z,10.52
2022-12-31T09:02:50.014Z,10.77
2022-12-31T09:05:39.282Z,10.45
2022-12-31T09:08:21.501Z,10.22
2022-12-31T09:11:20.797Z,10.70
2022-12-31T09:14:13.026Z,11.00
2022-12-31T09:17:02.295Z,10.70
2022-12-31T09:19:30.673Z,10.72
2022-12-31T09:21:59.355Z,10.87
2022-12-31T09:24:27.962Z,10.86
2022-12-31T09:27:38.327Z,10.73
2022-12-31T09:30:16.279Z,10.99
2022-12-31T09:33:00.517Z,11.25
2022-12-31T09:35:41.599Z,11.46
2022-12-31T09:38:30.896Z,11.63
2022-12-31T09:41:23.132Z,11.48
2022-12-31T09:44:03.396Z,11.32
2022-12-31T09:46:50.492Z,11.36
2022-12-31T09:49:30.597Z,11.44
2022-12-31T09:52:16.828Z,11.06
2022-12-31T09:54:49.936Z,10.98
2022-12-31T09:57:24.034Z,11.12
2022-12-31T10:00:20.511Z,11.37
2022-12-31T10:03:26.197Z,11.43
2022-12-31T10:06:03.652Z,11.30
2022-12-31T10:08:40.910Z,11.18
2022-12-31T10:11:26.764Z,11.04
2022-12-31T10:14:17.024Z,11.04
2022-12-31T10:17:22.752Z,11.07
2022-12-31T10:19:56.796Z,11.16
2022-12-31T10:22:33.749Z,11.19
2022-12-31T10:25:38.598Z,11.21
2022-12-31T10:28:26.504Z,11.24
2022-12-31T10:31:39.539Z,11.28
2022-12-31T10:34:22.953Z,11.33
2022-12-31T10:37:14.324Z,11.34
2022-12-31T10:40:13.545Z,11.34
2022-12-31T10:42:56.600Z,11.38
2022-12-31T10:45:45.775Z,11.26
2022-12-31T10:48:14.032Z,11.04
2022-12-31T10:50:51.531Z,10.99
2022-12-31T10:53:48.896Z,10.99
2022-12-31T10:56:31.301Z,11.20
2022-12-31T10:59:25.908Z,11.47
2022-12-31T11:02:24.602Z,11.66
2022-12-31T11:05:22.128Z,11.91
2022-12-31T11:08:15.226Z,11.95
2022-12-31T11:11:08.045Z,11.95
2022-12-31T11:13:48.292Z,12.08
2022-12-31T11:16:41.259Z,12.13
2022-12-31T11:19:35.631Z,12.19
2022-12-31T11:22:39.988Z,12.13
2022-12-31T11:25:23.186Z,12.11
2022-12-31T11:28:16.104Z,12.00
2022-12-31T11:30:59.472Z,11.88
2022-12-31T11:33:50.289Z,11.86
2022-12-31T11:36:36.500Z,11.86
2022-12-31T11:39:43.564Z,11.69
2022-12-31T11:42:48.685Z,11.64
2022-12-31T11:45:38.059Z,11.63
2022-12-31T11:48:31.238Z,11.83
2022-12-31T11:51:27.861Z,11.94
2022-12-31T11:53:57.731Z,12.05
2022-12-31T11:56:32.737Z,11.93
2022-12-31T11:59:06.270Z,11.89
2022-12-31T12:02:04.615Z,11.99
2022-12-31T12:04:32.749Z,11.98
2022-12-31T12:07:01.781Z,12.05
2022-12-31T12:09:31.309Z,11.91
2022-12-31T12:12:00.919Z,11.55
2022-12-31T12:14:40.712Z,11.40
2022-12-31T12:17:15.013Z,11.42
2022-12-31T12:19:53.336Z,11.50
2022-12-31T12:22:24.824Z,11.61
2022-12-31T12:25:03.608Z,11.85
2022-12-31T12:27:36.188Z,12.00
2022-12-31T12:30:24.635Z,12.17
2022-12-31T12:32:55.684Z,12.35
2022-12-31T12:35:30.074Z,12.53
2022-12-31T12:38:01.955Z,12.60
2022-12-31T12:40:34.176Z,12.57
2022-12-31T12:43:03.824Z,12.67
2022-12-31T12:45:38.146Z,12.75
2022-12-31T12:48:17.782Z,12.72
2022-12-31T12:50:49.328Z,12.77
2022-12-31T12:53:43.445Z,12.74
2022-12-31T12:56:14.447Z,12.88
2022-12-31T12:58:54.300Z,13.04
2022-12-31T13:01:44.825Z,13.14
2022-12-31T13:04:37.962Z,13.12
2022-12-31T13:07:30.988Z,12.98
2022-12-31T13:10:27.250Z,12.90
2022-12-31T13:15:58.545Z,12.90
2022-12-31T13:18:48.896Z,12.97
2022-12-31T13:21:43.269Z,13.06
2022-12-31T13:24:47.300Z,13.01
2022-12-31T13:27:28.684Z,12.88
2022-12-31T13:30:02.444Z,12.83
2022-12-31T13:32:56.161Z,12.80
2022-12-31T13:35:42.768Z,12.72
2022-12-31T13:38:21.782Z,12.74
2022-12-31T13:40:57.058Z,12.77
2022-12-31T13:43:51.020Z,12.67
2022-12-31T13:46:33.547Z,12.69
2022-12-31T13:49:14.290Z,12.67
2022-12-31T13:51:42.300Z,12.67
2022-12-31T13:54:18.418Z,12.69
2022-12-31T13:56:49.738Z,12.69
2022-12-31T13:59:22.649Z,12.66
2022-12-31T14:02:15.936Z,12.60
2022-12-31T14:04:51.193Z,12.39
2022-12-31T14:07:35.393Z,12.24
2022-12-31T14:10:17.256Z,11.99
2022-12-31T14:13:27.878Z,11.75
2022-12-31T14:16:12.896Z,11.30
2022-12-31T14:19:01.693Z,11.14
2022-12-31T14:21:35.297Z,10.59
2022-12-31T14:24:15.432Z,10.60
2022-12-31T14:26:52.772Z,10.66
2022-12-31T14:29:42.797Z,10.72
2022-12-31T14:32:56.339Z,10.79
2022-12-31T14:35:27.485Z,10.95
2022-12-31T14:38:10.618Z,11.16
2022-12-31T14:40:57.106Z,11.30
2022-12-31T14:43:32.147Z,11.36
2022-12-31T14:46:10.672Z,11.34
2022-12-31T14:49:17.359Z,11.30
2022-12-31T14:51:45.566Z,11.32
2022-12-31T14:54:36.750Z,11.35
2022-12-31T14:57:54.481Z,11.37
2022-12-31T15:00:25.807Z,11.40
2022-12-31T15:03:04.193Z,11.45
2022-12-31T15:05:37.692Z,11.53
2022-12-31T15:08:21.140Z,11.56
2022-12-31T15:10:57.981Z,11.56
2022-12-31T15:14:15.192Z,11.61
2022-12-31T15:17:24.794Z,11.66
2022-12-31T15:19:55.703Z,11.23
2022-12-31T15:22:36.512Z,11.09
2022-12-31T15:25:19.834Z,11.24
2022-12-31T15:27:48.945Z,11.25
2022-12-31T15:30:30.497Z,11.12
2022-12-31T15:33:02.505Z,11.15
2022-12-31T15:35:43.538Z,11.24
2022-12-31T15:38:11.519Z,11.37
2022-12-31T15:40:47.851Z,11.45
2022-12-31T15:43:25.170Z,11.37
2022-12-31T15:45:56.104Z,11.39
2022-12-31T15:48:33.176Z,11.29
2022-12-31T15:51:01.666Z,11.20
2022-12-31T15:53:36.112Z,11.34
2022-12-31T15:56:07.068Z,11.39
2022-12-31T15:58:37.557Z,11.23
2022-12-31T16:01:19.860Z,11.13
2022-12-31T16:03:55.698Z,10.96
2022-12-31T16:06:28.529Z,10.85
2022-12-31T16:08:57.566Z,10.94
2022-12-31T16:11:30.384Z,10.98
2022-12-31T16:13:59.871Z,11.03
2022-12-31T16:16:32.345Z,11.08
2022-12-31T16:19:01.640Z,11.03
2022-12-31T16:21:33.091Z,11.00
2022-12-31T16:24:22.249Z,11.19
2022-12-31T16:26:53.845Z,11.38
2022-12-31T16:29:24.221Z,11.36
2022-12-31T16:31:53.862Z,11.37
2022-12-31T16:34:24.633Z,11.45
2022-12-31T16:37:04.944Z,11.46
2022-12-31T16:39:35.409Z,11.45
2022-12-31T16:42:21.689Z,11.64
2022-12-31T16:44:51.943Z,11.83
2022-12-31T16:47:23.429Z,11.75
2022-12-31T16:50:02.688Z,11.78
2022-12-31T16:52:36.125Z,11.84
2022-12-31T16:55:16.897Z,11.85
2022-12-31T16:57:54.087Z,11.70
2022-12-31T17:00:25.375Z,11.68
2022-12-31T17:03:10.989Z,11.76
2022-12-31T17:06:07.546Z,11.42
2022-12-31T17:08:41.211Z,11.25
2022-12-31T17:11:39.310Z,11.24
2022-12-31T17:14:10.494Z,11.42
2022-12-31T17:17:09.053Z,11.64
2022-12-31T17:19:37.181Z,11.86
2022-12-31T17:22:10.598Z,11.95
2022-12-31T17:24:39.890Z,11.90
2022-12-31T17:27:09.547Z,11.78
2022-12-31T17:29:37.993Z,11.68
2022-12-31T17:32:28.216Z,11.46
2022-12-31T17:34:56.463Z,11.47
2022-12-31T17:37:30.147Z,11.45
2022-12-31T17:40:25.034Z,11.43
2022-12-31T17:42:50.694Z,11.47
2022-12-31T17:45:21.606Z,11.54
2022-12-31T17:47:53.874Z,11.65
2022-12-31T17:50:24.881Z,11.80
2022-12-31T17:52:57.433Z,11.85
2022-12-31T17:55:26.876Z,11.82
2022-12-31T17:57:57.334Z,11.85
2022-12-31T18:00:27.449Z,11.94
2022-12-31T18:02:55.871Z,12.09
2022-12-31T18:05:25.068Z,12.13
2022-12-31T18:07:53.617Z,12.20
2022-12-31T18:10:24.095Z,12.21
2022-12-31T18:12:52.657Z,12.18
2022-12-31T18:15:23.592Z,12.18
2022-12-31T18:17:52.067Z,12.18
2022-12-31T18:20:20.543Z,12.03
2022-12-31T18:22:48.913Z,11.99
2022-12-31T18:25:22.839Z,12.01
2022-12-31T18:27:51.793Z,11.96
2022-12-31T18:30:19.870Z,11.93
2022-12-31T18:32:48.765Z,11.85
2022-12-31T18:36:06.546Z,11.74
2022-12-31T18:38:13.555Z,11.64
2022-12-31T18:40:46.598Z,11.57
2022-12-31T18:43:18.023Z,11.58
2022-12-31T18:45:46.959Z,11.64
2022-12-31T18:48:16.011Z,11.68
2022-12-31T18:50:45.708Z,11.58
2022-12-31T18:53:20.752Z,11.50
2022-12-31T18:55:57.257Z,11.47
2022-12-31T18:58:25.489Z,11.42
2022-12-31T19:00:53.723Z,11.18
2022-12-31T19:03:24.853Z,10.98
2022-12-31T19:05:53.903Z,10.84
2022-12-31T19:08:23.614Z,10.93
2022-12-31T19:10:52.403Z,11.03
2022-12-31T19:13:20.979Z,11.09
2022-12-31T19:15:51.834Z,11.14
2022-12-31T19:18:20.171Z,11.07
2022-12-31T19:20:48.654Z,11.05
2022-12-31T19:23:19.545Z,11.09
2022-12-31T19:25:49.266Z,10.98
2022-12-31T19:28:26.193Z,11.04
2022-12-31T19:30:54.760Z,11.23
2022-12-31T19:33:23.169Z,11.29
2022-12-31T19:35:51.335Z,11.41
2022-12-31T19:38:25.803Z,11.56
2022-12-31T19:40:55.775Z,11.62
2022-12-31T19:43:24.416Z,11.66
2022-12-31T19:45:53.071Z,11.66
2022-12-31T19:48:32.103Z,11.67
2022-12-31T19:51:00.645Z,11.61
2022-12-31T19:53:29.123Z,11.59
2022-12-31T19:55:57.114Z,11.52
2022-12-31T19:58:26.633Z,11.46
2022-12-31T20:01:02.287Z,11.39
2022-12-31T20:03:33.453Z,11.30
2022-12-31T20:06:10.299Z,11.19
2022-12-31T20:08:39.674Z,11.14
2022-12-31T20:11:17.508Z,11.11
2022-12-31T20:13:47.413Z,10.97
2022-12-31T20:16:18.453Z,10.92
2022-12-31T20:18:47.924Z,10.91
2022-12-31T20:21:22.551Z,11.01
2022-12-31T20:23:52.899Z,11.12
2022-12-31T20:26:23.326Z,11.27
2022-12-31T20:28:52.295Z,11.35
2022-12-31T20:31:24.679Z,11.42
2022-12-31T20:33:54.688Z,11.51
2022-12-31T20:36:23.908Z,11.45
2022-12-31T20:38:52.345Z,11.43
2022-12-31T20:41:23.094Z,11.45
2022-12-31T20:43:51.584Z,11.52
2022-12-31T20:46:23.424Z,11.66
2022-12-31T20:48:54.438Z,11.61
2022-12-31T20:51:23.258Z,11.60
2022-12-31T20:53:57.869Z,11.66
2022-12-31T20:56:29.093Z,11.66
2022-12-31T20:58:57.495Z,11.68
2022-12-31T21:01:36.148Z,11.64
2022-12-31T21:04:14.608Z,11.43
2022-12-31T21:06:42.921Z,11.54
2022-12-31T21:09:11.433Z,11.72
2022-12-31T21:11:58.089Z,11.64
2022-12-31T21:14:26.191Z,11.76
2022-12-31T21:16:54.332Z,11.78
2022-12-31T21:19:22.612Z,11.60
2022-12-31T21:21:50.833Z,11.29
2022-12-31T21:24:23.523Z,11.27
2022-12-31T21:26:55.234Z,11.40
2022-12-31T21:29:23.777Z,11.42
2022-12-31T21:31:51.776Z,11.28
2022-12-31T21:34:19.869Z,11.16
2022-12-31T21:36:50.880Z,11.16
2022-12-31T21:39:18.952Z,11.23
2022-12-31T21:41:53.060Z,11.36
2022-12-31T21:44:24.233Z,11.53
2022-12-31T21:47:39.707Z,11.67
2022-12-31T21:50:10.327Z,11.69
2022-12-31T21:52:38.504Z,11.37
2022-12-31T21:55:25.672Z,11.31
2022-12-31T22:01:00.675Z,10.99
2022-12-31T22:03:29.277Z,11.09
2022-12-31T22:06:13.183Z,11.17
2022-12-31T22:08:43.412Z,10.65
2022-12-31T22:11:12.976Z,10.38
2022-12-31T22:13:41.517Z,10.23
2022-12-31T22:16:10.718Z,10.09
2022-12-31T22:18:40.554Z,10.30
2022-12-31T22:21:17.772Z,10.42
2022-12-31T22:23:49.065Z,10.49
2022-12-31T22:26:19.298Z,10.68
2022-12-31T22:28:48.072Z,10.50
2022-12-31T22:31:19.634Z,10.25
2022-12-31T22:33:47.877Z,10.25
2022-12-31T22:36:18.548Z,10.23
2022-12-31T22:38:47.697Z,10.33
2022-12-31T22:41:18.669Z,10.41
2022-12-31T22:43:49.232Z,10.41
2022-12-31T22:46:20.747Z,10.27
2022-12-31T22:48:49.307Z,10.23
2022-12-31T22:51:18.188Z,10.53
2022-12-31T22:53:46.624Z,10.79
2022-12-31T22:56:17.715Z,10.84
2022-12-31T22:58:46.615Z,10.72
2022-12-31T23:01:20.577Z,10.77
2022-12-31T23:03:50.834Z,10.99
2022-12-31T23:06:20.239Z,11.21
2022-12-31T23:09:09.392Z,11.33
2022-12-31T23:11:37.926Z,11.36
2022-12-31T23:14:26.180Z,11.56
2022-12-31T23:17:29.619Z,11.71
2022-12-31T23:20:19.602Z,11.49
2022-12-31T23:23:07.853Z,11.27
2022-12-31T23:25:42.621Z,11.24
2022-12-31T23:28:14.676Z,11.38
2022-12-31T23:30:43.799Z,11.50
2022-12-31T23:33:17.975Z,11.71
2022-12-31T23:35:46.429Z,11.86
2022-12-31T23:38:16.897Z,11.97
2022-12-31T23:40:45.428Z,12.00
2022-12-31T23:43:21.697Z,11.97
2022-12-31T23:45:51.237Z,11.89
2022-12-31T23:48:19.497Z,11.65
2022-12-31T23:50:53.460Z,11.43
2022-12-31T23:53:23.704Z,11.17
2022-12-31T23:55:52.900Z,11.36
2022-12-31T23:58:21.459Z,11.72
